Raymond, Illinois
Current Conditions -  °F | °C
As of 7:15 PM on Thursday 18 Dec 2014 (Local Time) from K3LF Reporting Station
Overcast Overcast  
Wind Chill: 24°   Ceiling: 3500
Heat Index: 29°   Visibility: 10mi
Dew Point: 24°   Wind: 5mph
Humidity: 80%   Direction: 30°NNE
Pressure: 30.27"   Gusts: NA
Location:  39.32°N, 89.57°W
Report Text: K3LF 190115Z AUTO 03004KT 10SM SCT029 OVC035 M01/M04 A3027 RMK AO2 T10151045
Loading
Personal Weather Stations






























Interactive Weather Map New forecast layout! Learn more

10-Day Weather Forecast

Advertisements
Track Severe Weather on mobile